Time;durP1;ratioP1;P1;durP2;ratioP2;P2;SDS_P1;SDS_P2;PMS_P1;PMS_P2;Temp;Humidity;BMP_temperature;BMP_pressure;BME280_temperature;BME280_humidity;BME280_pressure;Samples;Min_cycle;Max_cycle;Signal;HPM_P1;HPM_P2
2021/07/13 00:00:38;;;;;;;;;;;;;;;;;;10341383;28;20370;-70
2021/07/13 00:05:35;;;;;;;;;;;;;;;;;;10342090;28;19916;-69
2021/07/13 00:10:33;;;;;;;;;;;;;;;;;;10338042;28;19939;-69
2021/07/13 00:15:30;;;;;;;;;;;;;;;;;;10334704;28;19970;-69
2021/07/13 00:20:27;;;;;;;;;;;;;;;;;;10330141;28;19917;-69
2021/07/13 00:25:24;;;;;;;;;;;;;;;;;;10329206;28;20256;-70
2021/07/13 00:30:22;;;;;;;;;;;;;;;;;;10340487;28;19913;-70
2021/07/13 00:35:19;;;;;;;;;;;;;;;;;;10329539;28;20027;-69
2021/07/13 00:40:16;;;;;;;;;;;;;;;;;;10333880;28;19921;-70
2021/07/13 00:45:13;;;;;;;;;;;;;;;;;;10340638;28;19920;-68
2021/07/13 00:50:11;;;;;;;;;;;;;;;;;;10342706;28;19928;-69
2021/07/13 00:55:08;;;;;;;;;;;;;;;;;;10346360;28;19912;-70
2021/07/13 01:00:05;;;;;;;;;;;;;;;;;;10341669;28;19922;-68
2021/07/13 01:05:02;;;;;;;;;;;;;;;;;;10338509;28;19931;-67
2021/07/13 01:10:00;;;;;;;;;;;;;;;;;;10328801;28;19938;-68
2021/07/13 01:14:57;;;;;;;;;;;;;;;;;;10344251;28;19920;-69
2021/07/13 01:19:54;;;;;;;;;;;;;;;;;;10341356;28;20420;-69
2021/07/13 01:24:51;;;;;;;;;;;;;;;;;;10340971;28;19923;-69
2021/07/13 01:29:49;;;;;;;;;;;;;;;;;;10347312;28;19913;-69
2021/07/13 01:34:48;;;;;;;;;;;;;;;;;;10339990;28;19947;-69
2021/07/13 01:39:45;;;;;;;;;;;;;;;;;;10339950;28;19966;-70
2021/07/13 01:44:43;;;;;;;;;;;;;;;;;;10339759;28;19916;-68
2021/07/13 01:49:40;;;;;;;;;;;;;;;;;;10344347;28;19952;-67
2021/07/13 01:54:37;;;;;;;;;;;;;;;;;;10343060;28;20251;-69
2021/07/13 01:59:34;;;;;;;;;;;;;;;;;;10340857;28;19924;-68
2021/07/13 02:04:32;;;;;;;;;;;;;;;;;;10343010;28;19912;-69
2021/07/13 02:09:29;;;;;;;;;;;;;;;;;;10342520;28;19920;-69
2021/07/13 02:14:26;;;;;;;;;;;;;;;;;;10340338;28;20451;-69
2021/07/13 02:19:25;;;;;;;;;;;;;;;;;;10336728;28;19923;-69
2021/07/13 02:24:23;;;;;;;;;;;;;;;;;;10349346;28;19924;-69
2021/07/13 02:29:20;;;;;;;;;;;;;;;;;;10341732;28;19909;-68
2021/07/13 02:34:17;;;;;;;;;;;;;;;;;;10339684;28;20281;-70
2021/07/13 02:39:15;;;;;;;;;;;;;;;;;;10344077;28;19919;-69
2021/07/13 02:44:12;;;;;;;;;;;;;;;;;;10339613;28;19916;-70
2021/07/13 02:49:10;;;;;;;;;;;;;;;;;;10338487;28;20011;-69
2021/07/13 02:54:07;;;;;;;;;;;;;;;;;;10347476;28;19904;-69
2021/07/13 02:59:04;;;;;;;;;;;;;;;;;;10342357;28;19971;-69
2021/07/13 03:04:02;;;;;;;;;;;;;;;;;;10352861;28;19912;-69
2021/07/13 03:08:59;;;;;;;;;;;;;;;;;;10342958;28;19913;-69
2021/07/13 03:13:56;;;;;;;;;;;;;;;;;;10339548;28;19913;-69
2021/07/13 03:18:53;;;;;;;;;;;;;;;;;;10342782;28;19958;-69
2021/07/13 03:23:51;;;;;;;;;;;;;;;;;;10365169;28;19935;-69
2021/07/13 03:28:48;;;;;;;;;;;;;;;;;;10341049;28;20151;-67
2021/07/13 03:33:45;;;;;;;;;;;;;;;;;;10340622;28;20001;-68
2021/07/13 03:38:42;;;;;;;;;;;;;;;;;;10339555;28;20344;-68
2021/07/13 03:43:40;;;;;;;;;;;;;;;;;;10341236;28;20234;-70
2021/07/13 03:48:37;;;;;;;;;;;;;;;;;;10340390;28;19947;-69
2021/07/13 03:53:34;;;;;;;;;;;;;;;;;;10325841;28;19920;-68
2021/07/13 03:58:31;;;;;;;;;;;;;;;;;;10326319;28;19936;-67
2021/07/13 04:03:29;;;;;;;;;;;;;;;;;;10325530;28;19924;-69
2021/07/13 04:08:26;;;;;;;;;;;;;;;;;;10326834;28;20365;-69
2021/07/13 04:13:23;;;;;;;;;;;;;;;;;;10334594;28;19919;-68
2021/07/13 04:18:20;;;;;;;;;;;;;;;;;;10338528;28;19921;-69
2021/07/13 04:23:18;;;;;;;;;;;;;;;;;;10326234;28;19943;-70
2021/07/13 04:28:15;;;;;;;;;;;;;;;;;;10336197;28;19927;-68
2021/07/13 04:33:12;;;;;;;;;;;;;;;;;;10335550;28;19920;-68
2021/07/13 04:38:09;;;;;;;;;;;;;;;;;;10336742;28;19913;-68
2021/07/13 04:43:07;;;;;;;;;;;;;;;;;;10327871;28;19916;-69
2021/07/13 04:48:04;;;;;;;;;;;;;;;;;;10333202;28;20061;-69
2021/07/13 04:53:01;;;;;;;;;;;;;;;;;;10340357;28;19931;-69
2021/07/13 04:57:59;;;;;;;;;;;;;;;;;;10334245;28;20312;-68
2021/07/13 05:02:57;;;;;;;;;;;;;;;;;;10332679;28;20298;-66
2021/07/13 05:07:54;;;;;;;;;;;;;;;;;;10336494;28;20159;-69
2021/07/13 05:12:51;;;;;;;;;;;;;;;;;;10332925;28;20019;-67
2021/07/13 05:17:48;;;;;;;;;;;;;;;;;;10331829;28;20011;-67
2021/07/13 05:22:46;;;;;;;;;;;;;;;;;;10341314;28;19917;-68
2021/07/13 05:27:43;;;;;;;;;;;;;;;;;;10371618;22;20103;-60
2021/07/13 05:32:41;;;;;;;;;;;;;;;;;;10290323;28;20358;-63
2021/07/13 05:37:38;;;;;;;;;;;;;;;;;;10305130;28;20298;-63
2021/07/13 05:42:35;;;;;;;;;;;;;;;;;;10312633;28;19931;-63
2021/07/13 05:47:32;;;;;;;;;;;;;;;;;;10310918;28;19916;-63
2021/07/13 05:52:30;;;;;;;;;;;;;;;;;;10313286;28;19920;-63
2021/07/13 05:57:27;;;;;;;;;;;;;;;;;;10308227;28;19971;-63
2021/07/13 06:02:24;;;;;;;;;;;;;;;;;;10296322;22;19920;-61
2021/07/13 06:07:21;;;;;;;;;;;;;;;;;;10250177;28;20914;-60
2021/07/13 06:12:19;;;;;;;;;;;;;;;;;;10261054;28;20229;-59
2021/07/13 06:17:16;;;;;;;;;;;;;;;;;;10254684;28;19920;-60
2021/07/13 06:22:13;;;;;;;;;;;;;;;;;;10271533;28;19977;-63
2021/07/13 06:27:11;;;;;;;;;;;;;;;;;;10255857;28;19928;-60
2021/07/13 06:32:09;;;;;;;;;;;;;;;;;;10250842;28;19921;-62
2021/07/13 06:37:06;;;;;;;;;;;;;;;;;;10267422;28;21263;-62
2021/07/13 06:42:04;;;;;;;;;;;;;;;;;;10254753;28;19924;-61
2021/07/13 06:47:01;;;;;;;;;;;;;;;;;;10266527;28;19935;-61
2021/07/13 06:51:58;;;;;;;;;;;;;;;;;;10266543;28;19928;-61
2021/07/13 06:56:56;;;;;;;;;;;;;;;;;;10246709;28;19924;-60
2021/07/13 07:01:53;;;;;;;;;;;;;;;;;;10263606;28;20432;-61
2021/07/13 07:06:50;;;;;;;;;;;;;;;;;;10307272;28;20364;-63
2021/07/13 07:11:48;;;;;;;;;;;;;;;;;;10298170;28;19913;-64
2021/07/13 07:16:45;;;;;;;;;;;;;;;;;;10307930;28;19952;-61
2021/07/13 07:21:43;;;;;;;;;;;;;;;;;;10309383;28;19916;-63
2021/07/13 07:26:40;;;;;;;;;;;;;;;;;;10306994;28;19962;-62
2021/07/13 07:31:37;;;;;;;;;;;;;;;;;;10299721;28;19971;-62
2021/07/13 07:36:35;;;;;;;;;;;;;;;;;;10317605;28;20352;-62
2021/07/13 07:41:32;;;;;;;;;;;;;;;;;;10299671;28;19986;-63
2021/07/13 07:46:29;;;;;;;;;;;;;;;;;;10317181;28;19942;-62
2021/07/13 07:51:27;;;;;;;;;;;;;;;;;;10296633;28;20001;-62
2021/07/13 07:56:24;;;;;;;;;;;;;;;;;;10301744;28;19999;-63
2021/07/13 08:01:21;;;;;;;;;;;;;;;;;;10298666;28;20017;-61
2021/07/13 08:06:19;;;;;;;;;;;;;;;;;;10302961;28;20353;-62
2021/07/13 08:11:16;;;;;;;;;;;;;;;;;;10306368;28;19921;-61
2021/07/13 08:16:13;;;;;;;;;;;;;;;;;;10295316;28;19942;-63
2021/07/13 08:21:11;;;;;;;;;;;;;;;;;;10310896;28;19963;-61
2021/07/13 08:26:08;;;;;;;;;;;;;;;;;;10312850;28;19956;-62
2021/07/13 08:31:06;;;;;;;;;;;;;;;;;;10313499;28;19913;-63
2021/07/13 08:36:03;;;;;;;;;;;;;;;;;;10289198;28;20324;-62
2021/07/13 08:41:00;;;;;;;;;;;;;;;;;;10284595;28;20634;-63
2021/07/13 08:45:57;;;;;;;;;;;;;;;;;;10299647;28;20130;-63
2021/07/13 08:50:55;;;;;;;;;;;;;;;;;;10297052;28;20168;-63
2021/07/13 08:55:55;;;;;;;;;;;;;;;;;;10300973;28;19920;-63
2021/07/13 09:00:53;;;;;;;;;;;;;;;;;;10295344;28;19999;-61
2021/07/13 09:05:51;;;;;;;;;;;;;;;;;;10262763;28;19923;-62
2021/07/13 09:10:49;;;;;;;;;;;;;;;;;;10298326;28;19912;-61
2021/07/13 09:15:46;;;;;;;;;;;;;;;;;;10305470;28;19917;-62
2021/07/13 09:20:43;;;;;;;;;;;;;;;;;;10307938;28;19921;-63
2021/07/13 09:25:42;;;;;;;;;;;;;;;;;;10303018;28;19923;-63
2021/07/13 09:30:39;;;;;;;;;;;;;;;;;;10306645;28;20477;-62
2021/07/13 09:35:36;;;;;;;;;;;;;;;;;;10301202;28;19943;-63
2021/07/13 09:40:34;;;;;;;;;;;;;;;;;;10301471;28;20268;-64
2021/07/13 09:45:32;;;;;;;;;;;;;;;;;;10297633;28;19944;-62
2021/07/13 09:50:30;;;;;;;;;;;;;;;;;;10287624;28;19959;-63
2021/07/13 09:55:28;;;;;;;;;;;;;;;;;;10298163;28;21221;-63
2021/07/13 10:00:26;;;;;;;;;;;;;;;;;;10298993;28;20393;-62
2021/07/13 10:05:24;;;;;;;;;;;;;;;;;;10304857;28;19999;-63
2021/07/13 10:10:22;;;;;;;;;;;;;;;;;;10297253;28;19916;-65
2021/07/13 10:15:19;;;;;;;;;;;;;;;;;;10304421;28;20395;-66
2021/07/13 10:20:16;;;;;;;;;;;;;;;;;;10294927;28;19912;-63
2021/07/13 10:25:13;;;;;;;;;;;;;;;;;;10297941;28;20299;-62
2021/07/13 10:30:11;;;;;;;;;;;;;;;;;;10311304;28;19916;-65
2021/07/13 10:35:08;;;;;;;;;;;;;;;;;;10293947;28;20303;-63
2021/07/13 10:40:06;;;;;;;;;;;;;;;;;;10275358;28;19917;-62
2021/07/13 10:45:03;;;;;;;;;;;;;;;;;;10304017;28;19916;-63
2021/07/13 10:50:00;;;;;;;;;;;;;;;;;;10300264;28;19913;-62
2021/07/13 10:54:57;;;;;;;;;;;;;;;;;;10277886;28;20321;-62
2021/07/13 10:59:55;;;;;;;;;;;;;;;;;;10302206;28;19924;-63
2021/07/13 11:04:52;;;;;;;;;;;;;;;;;;10295158;28;19912;-62
2021/07/13 11:09:50;;;;;;;;;;;;;;;;;;10283355;28;19966;-63
2021/07/13 11:14:48;;;;;;;;;;;;;;;;;;10294452;28;20283;-63
2021/07/13 11:19:45;;;;;;;;;;;;;;;;;;10300734;28;19962;-63
2021/07/13 11:24:42;;;;;;;;;;;;;;;;;;10281991;28;20023;-62
2021/07/13 11:29:39;;;;;;;;;;;;;;;;;;10294403;28;20011;-62
2021/07/13 11:34:37;;;;;;;;;;;;;;;;;;10277534;28;19916;-63
2021/07/13 11:39:34;;;;;;;;;;;;;;;;;;10295265;28;19917;-63
2021/07/13 11:44:31;;;;;;;;;;;;;;;;;;10296445;28;19917;-63
2021/07/13 11:49:29;;;;;;;;;;;;;;;;;;10289957;28;19999;-63
2021/07/13 11:54:26;;;;;;;;;;;;;;;;;;10285861;28;19916;-63
2021/07/13 11:59:23;;;;;;;;;;;;;;;;;;10281363;28;19921;-63
2021/07/13 12:04:21;;;;;;;;;;;;;;;;;;10294212;28;19913;-63
2021/07/13 12:09:18;;;;;;;;;;;;;;;;;;10273506;28;19917;-60
2021/07/13 12:14:16;;;;;;;;;;;;;;;;;;10287265;28;19912;-62
2021/07/13 12:19:13;;;;;;;;;;;;;;;;;;10304060;28;19963;-63
2021/07/13 12:24:13;;;;;;;;;;;;;;;;;;10300331;28;20264;-63
2021/07/13 12:29:10;;;;;;;;;;;;;;;;;;10297957;28;19917;-64
2021/07/13 12:34:07;;;;;;;;;;;;;;;;;;10300259;28;20151;-63
2021/07/13 12:39:05;;;;;;;;;;;;;;;;;;10297368;28;19917;-63
2021/07/13 12:44:03;;;;;;;;;;;;;;;;;;10297439;28;19913;-64
2021/07/13 12:49:00;;;;;;;;;;;;;;;;;;10302634;28;19917;-63
2021/07/13 12:53:57;;;;;;;;;;;;;;;;;;10298348;28;19913;-63
2021/07/13 12:58:55;;;;;;;;;;;;;;;;;;10282745;28;19921;-63
2021/07/13 13:03:52;;;;;;;;;;;;;;;;;;10301503;28;19921;-64
2021/07/13 13:08:49;;;;;;;;;;;;;;;;;;10294383;28;19916;-63
2021/07/13 13:13:47;;;;;;;;;;;;;;;;;;10290391;28;20011;-63
2021/07/13 13:18:44;;;;;;;;;;;;;;;;;;10290280;28;20295;-64
2021/07/13 13:23:41;;;;;;;;;;;;;;;;;;10300571;28;19917;-61
2021/07/13 13:28:39;;;;;;;;;;;;;;;;;;10307232;28;19964;-63
2021/07/13 13:33:38;;;;;;;;;;;;;;;;;;10292230;28;19913;-63
2021/07/13 13:43:39;;;;;;;;;;;;;;;;;;10291408;28;20023;-63
2021/07/13 13:48:36;;;;;;;;;;;;;;;;;;10284571;28;20388;-63
2021/07/13 13:53:37;;;;;;;;;;;;;;;;;;10278533;28;19920;-63
2021/07/13 13:58:34;;;;;;;;;;;;;;;;;;10298627;28;19939;-63
2021/07/13 14:03:31;;;;;;;;;;;;;;;;;;10302446;28;19919;-62
2021/07/13 14:08:29;;;;;;;;;;;;;;;;;;10307969;28;19916;-63
2021/07/13 14:13:26;;;;;;;;;;;;;;;;;;10285118;28;19954;-62
2021/07/13 14:18:23;;;;;;;;;;;;;;;;;;10275557;28;19917;-61
2021/07/13 14:23:21;;;;;;;;;;;;;;;;;;10304079;28;19932;-62
2021/07/13 14:28:18;;;;;;;;;;;;;;;;;;10297251;28;19917;-61
2021/07/13 14:33:15;;;;;;;;;;;;;;;;;;10303762;28;19916;-62
2021/07/13 14:38:13;;;;;;;;;;;;;;;;;;10294109;28;19920;-62
2021/07/13 14:43:12;;;;;;;;;;;;;;;;;;10301964;28;19923;-61
2021/07/13 14:48:10;;;;;;;;;;;;;;;;;;10293531;28;19921;-62
2021/07/13 14:53:07;;;;;;;;;;;;;;;;;;10295698;28;19913;-62
2021/07/13 14:58:04;;;;;;;;;;;;;;;;;;10302995;28;19958;-61
2021/07/13 15:03:02;;;;;;;;;;;;;;;;;;10303840;28;19928;-61
2021/07/13 15:07:59;;;;;;;;;;;;;;;;;;10300409;28;19919;-62
2021/07/13 15:12:56;;;;;;;;;;;;;;;;;;10291505;28;19921;-61
2021/07/13 15:17:54;;;;;;;;;;;;;;;;;;10293392;28;20344;-62
2021/07/13 15:22:51;;;;;;;;;;;;;;;;;;10283033;28;19925;-62
2021/07/13 15:27:48;;;;;;;;;;;;;;;;;;10295036;28;19979;-61
2021/07/13 15:32:45;;;;;;;;;;;;;;;;;;10288357;28;19992;-62
2021/07/13 15:37:43;;;;;;;;;;;;;;;;;;10282054;28;20186;-64
2021/07/13 15:42:42;;;;;;;;;;;;;;;;;;10279775;28;20212;-63
2021/07/13 15:47:39;;;;;;;;;;;;;;;;;;10299412;28;20391;-64
2021/07/13 15:52:36;;;;;;;;;;;;;;;;;;10292432;28;20277;-63
2021/07/13 15:57:34;;;;;;;;;;;;;;;;;;10290490;28;19909;-64
2021/07/13 16:02:31;;;;;;;;;;;;;;;;;;10300240;28;20287;-63
2021/07/13 16:07:28;;;;;;;;;;;;;;;;;;10300619;28;20561;-63
2021/07/13 16:12:26;;;;;;;;;;;;;;;;;;10294929;28;20010;-63
2021/07/13 16:17:25;;;;;;;;;;;;;;;;;;10292315;28;19924;-61
2021/07/13 16:22:24;;;;;;;;;;;;;;;;;;10271597;28;20031;-63
2021/07/13 16:27:29;;;;;;;;;;;;;;;;;;10295526;28;19932;-63
2021/07/13 16:32:27;;;;;;;;;;;;;;;;;;10294624;28;19917;-63
2021/07/13 16:37:24;;;;;;;;;;;;;;;;;;10305563;28;19912;-63
2021/07/13 16:42:21;;;;;;;;;;;;;;;;;;10287359;28;19966;-63
2021/07/13 16:47:19;;;;;;;;;;;;;;;;;;10282039;28;20072;-63
2021/07/13 16:52:16;;;;;;;;;;;;;;;;;;10294777;28;19920;-62
2021/07/13 16:57:13;;;;;;;;;;;;;;;;;;10282233;28;20347;-62
2021/07/13 17:02:10;;;;;;;;;;;;;;;;;;10292211;28;19920;-63
2021/07/13 17:07:08;;;;;;;;;;;;;;;;;;10291906;28;19921;-64
2021/07/13 17:12:05;;;;;;;;;;;;;;;;;;10266986;28;19979;-63
2021/07/13 17:17:02;;;;;;;;;;;;;;;;;;10290887;28;19921;-62
2021/07/13 17:22:00;;;;;;;;;;;;;;;;;;10286555;28;19928;-63
2021/07/13 17:26:57;;;;;;;;;;;;;;;;;;10291455;28;19921;-63
2021/07/13 17:31:55;;;;;;;;;;;;;;;;;;10291553;28;20016;-63
2021/07/13 17:36:53;;;;;;;;;;;;;;;;;;10298077;28;19916;-62
2021/07/13 17:41:50;;;;;;;;;;;;;;;;;;10288833;28;19939;-63
2021/07/13 17:46:47;;;;;;;;;;;;;;;;;;10302312;28;19917;-63
2021/07/13 17:51:44;;;;;;;;;;;;;;;;;;10291918;28;20288;-62
2021/07/13 17:56:42;;;;;;;;;;;;;;;;;;10292399;28;20398;-64
2021/07/13 18:01:39;;;;;;;;;;;;;;;;;;10290474;28;20186;-62
2021/07/13 18:06:36;;;;;;;;;;;;;;;;;;10296025;28;20032;-62
2021/07/13 18:11:34;;;;;;;;;;;;;;;;;;10289618;28;20010;-63
2021/07/13 18:16:31;;;;;;;;;;;;;;;;;;10301106;28;19921;-62
2021/07/13 18:21:29;;;;;;;;;;;;;;;;;;10305669;28;20003;-62
2021/07/13 18:26:26;;;;;;;;;;;;;;;;;;10298459;28;19966;-63
2021/07/13 18:31:23;;;;;;;;;;;;;;;;;;10297629;28;20256;-62
2021/07/13 18:36:20;;;;;;;;;;;;;;;;;;10304069;28;20019;-62
2021/07/13 18:41:18;;;;;;;;;;;;;;;;;;10323250;28;20264;-62
2021/07/13 18:46:15;;;;;;;;;;;;;;;;;;10303462;28;20361;-63
2021/07/13 18:51:13;;;;;;;;;;;;;;;;;;10302039;28;20296;-62
2021/07/13 18:56:10;;;;;;;;;;;;;;;;;;10289528;28;20373;-62
2021/07/13 19:01:07;;;;;;;;;;;;;;;;;;10300756;28;20312;-62
2021/07/13 19:06:06;;;;;;;;;;;;;;;;;;10297655;28;19913;-63
2021/07/13 19:11:04;;;;;;;;;;;;;;;;;;10296363;28;19999;-62
2021/07/13 19:16:01;;;;;;;;;;;;;;;;;;10300014;28;19912;-63
2021/07/13 19:20:58;;;;;;;;;;;;;;;;;;10291923;28;20336;-63
2021/07/13 19:25:56;;;;;;;;;;;;;;;;;;10296624;28;19978;-63
2021/07/13 19:30:53;;;;;;;;;;;;;;;;;;10288726;28;20241;-63
2021/07/13 19:41:07;;;;;;;;;;;;;;;;;;10277767;28;20437;-63
2021/07/13 19:46:04;;;;;;;;;;;;;;;;;;10276862;28;19920;-62
2021/07/13 19:51:01;;;;;;;;;;;;;;;;;;10305930;28;19927;-63
2021/07/13 19:55:59;;;;;;;;;;;;;;;;;;10297146;28;19913;-62
2021/07/13 20:00:57;;;;;;;;;;;;;;;;;;10297439;28;20291;-62
2021/07/13 20:05:54;;;;;;;;;;;;;;;;;;10283812;28;19909;-62
2021/07/13 20:10:51;;;;;;;;;;;;;;;;;;10286652;28;19909;-62
2021/07/13 20:15:49;;;;;;;;;;;;;;;;;;10293383;28;20128;-62
2021/07/13 20:20:46;;;;;;;;;;;;;;;;;;10284355;28;19995;-61
2021/07/13 20:25:43;;;;;;;;;;;;;;;;;;10287849;28;20393;-62
2021/07/13 20:30:41;;;;;;;;;;;;;;;;;;10298394;28;20297;-62
2021/07/13 20:35:38;;;;;;;;;;;;;;;;;;10299497;28;19924;-62
2021/07/13 20:40:35;;;;;;;;;;;;;;;;;;10289871;28;20102;-61
2021/07/13 20:45:33;;;;;;;;;;;;;;;;;;10308023;28;19913;-62
2021/07/13 20:50:31;;;;;;;;;;;;;;;;;;10280285;28;19959;-62
2021/07/13 20:55:29;;;;;;;;;;;;;;;;;;10295859;28;20382;-62
2021/07/13 21:00:26;;;;;;;;;;;;;;;;;;10287503;28;20335;-61
2021/07/13 21:05:23;;;;;;;;;;;;;;;;;;10293162;28;19927;-62
2021/07/13 21:10:21;;;;;;;;;;;;;;;;;;10278261;28;20069;-62
2021/07/13 21:15:18;;;;;;;;;;;;;;;;;;10295158;28;19932;-61
2021/07/13 21:20:15;;;;;;;;;;;;;;;;;;10303416;28;20434;-62
2021/07/13 21:25:12;;;;;;;;;;;;;;;;;;10290498;28;20296;-62
2021/07/13 21:30:10;;;;;;;;;;;;;;;;;;10295037;28;19936;-62
2021/07/13 21:35:07;;;;;;;;;;;;;;;;;;10304016;28;20011;-61
2021/07/13 21:40:04;;;;;;;;;;;;;;;;;;10280348;28;19921;-62
2021/07/13 21:45:02;;;;;;;;;;;;;;;;;;10293200;28;20008;-63
2021/07/13 21:49:59;;;;;;;;;;;;;;;;;;10299182;28;19916;-63
2021/07/13 21:54:56;;;;;;;;;;;;;;;;;;10306602;28;19917;-63
2021/07/13 21:59:54;;;;;;;;;;;;;;;;;;10309344;28;20479;-63
2021/07/13 22:04:51;;;;;;;;;;;;;;;;;;10312793;28;20027;-64
2021/07/13 22:09:53;;;;;;;;;;;;;;;;;;10307881;28;19931;-64
2021/07/13 22:14:50;;;;;;;;;;;;;;;;;;10285230;28;19913;-61
2021/07/13 22:19:47;;;;;;;;;;;;;;;;;;10294824;28;19925;-61
2021/07/13 22:24:45;;;;;;;;;;;;;;;;;;10290435;28;19912;-62
2021/07/13 22:29:42;;;;;;;;;;;;;;;;;;10316707;28;19939;-61
2021/07/13 22:34:39;;;;;;;;;;;;;;;;;;10296833;28;20463;-61
2021/07/13 22:39:37;;;;;;;;;;;;;;;;;;10304757;28;19974;-62
2021/07/13 22:44:34;;;;;;;;;;;;;;;;;;10303135;28;20012;-61
2021/07/13 22:49:31;;;;;;;;;;;;;;;;;;10292419;28;19913;-62
2021/07/13 22:54:29;;;;;;;;;;;;;;;;;;10298358;28;19921;-61
2021/07/13 22:59:26;;;;;;;;;;;;;;;;;;10297033;28;19921;-62
2021/07/13 23:04:23;;;;;;;;;;;;;;;;;;10300009;28;19924;-63
2021/07/13 23:09:21;;;;;;;;;;;;;;;;;;10291522;28;19913;-62
2021/07/13 23:14:20;;;;;;;;;;;;;;;;;;10290326;28;19912;-62
2021/07/13 23:19:18;;;;;;;;;;;;;;;;;;10305047;28;20431;-62
2021/07/13 23:24:15;;;;;;;;;;;;;;;;;;10292333;28;19916;-64
2021/07/13 23:29:12;;;;;;;;;;;;;;;;;;10283188;28;20373;-62
2021/07/13 23:34:10;;;;;;;;;;;;;;;;;;10290432;28;19992;-62
2021/07/13 23:39:08;;;;;;;;;;;;;;;;;;10293009;28;19916;-62
2021/07/13 23:44:05;;;;;;;;;;;;;;;;;;10289694;28;19972;-62
2021/07/13 23:49:03;;;;;;;;;;;;;;;;;;10280525;28;19979;-62
2021/07/13 23:54:00;;;;;;;;;;;;;;;;;;10284486;28;19920;-63
2021/07/13 23:58:57;;;;;;;;;;;;;;;;;;10293555;28;19935;-62
